Meramec River (Missouri), Steelville (07013000)

StateMissouriCurrentPotential (320 cfs)
RiverMeramec RiverFlood - The river is flooding. Obstacles can be treacherous or deadly. The river should be avoided at this stage for casual trips and definitely for the inexperienced. Trips should be attempted only with protective gear and equipment.Flood(none)
Updated2019-12-11 13:00 (39 minutes ago)High - The river is high and potentially dangerous, especially for the young and / or inexperienced. Normal stream obstacles are sometimes difficult to navigate. Extended distances can be attempted, but canoe travel may not be advisable.High(none)
Discharge320 cfs (median: 244 cfs)Good - Conditions are ideal for a canoe or kayak. Boats typically will drag on fewer than one-quarter of riffles, if at all, and portages are unnecessary or rare. Normal float lengths can be attempted without a problem.Good(none)
Height1.76 feetLow - River is low but can still be floated. Some riffles are okay but most come with significant dragging and might need a portage. Float lengths should be reduced to accommodate low flow, dragging, and portages.Low(none)
TrendFalling (falling over 24 hours)Poor - River is too low to float comfortably. Most or all riffles will drag or must be portaged and some obstacles (such as slick shelf rock) cause undue problems. Avoid the river at this stage for casual paddling trips.Poor(none)
USGSExternal icon USGS Site for Steelville (07013000)LocationExternal icon Google Maps

Trending Data

Plot Image
ObservationHeightDischargeMaximum
Discharge
Minimum
Discharge
Mean
Discharge
P05P10P20P25P50
(Median)
P75P80P90P95
2019-12-11 13:00 1.76 320 3710 (1986) 119 (1956) 395 130 139 156 163 244 439 489 801 1070
2019-12-11 12:30 1.77 324 3710 (1986) 119 (1956) 395 130 139 156 163 244 439 489 801 1070
2019-12-11 12:00 1.78 328 3710 (1986) 119 (1956) 395 130 139 156 163 244 439 489 801 1070
2019-12-11 11:30 1.77 324 3710 (1986) 119 (1956) 395 130 139 156 163 244 439 489 801 1070
2019-12-11 11:00 1.77 324 3710 (1986) 119 (1956) 395 130 139 156 163 244 439 489 801 1070
2019-12-11 10:30 1.77 324 3710 (1986) 119 (1956) 395 130 139 156 163 244 439 489 801 1070
2019-12-11 10:00 1.78 328 3710 (1986) 119 (1956) 395 130 139 156 163 244 439 489 801 1070
2019-12-11 09:30 1.78 328 3710 (1986) 119 (1956) 395 130 139 156 163 244 439 489 801 1070
2019-12-11 09:00 1.77 324 3710 (1986) 119 (1956) 395 130 139 156 163 244 439 489 801 1070
2019-12-11 08:30 1.77 324 3710 (1986) 119 (1956) 395 130 139 156 163 244 439 489 801 1070
2019-12-11 08:00 1.78 328 3710 (1986) 119 (1956) 395 130 139 156 163 244 439 489 801 1070
2019-12-11 07:30 1.78 328 3710 (1986) 119 (1956) 395 130 139 156 163 244 439 489 801 1070
2019-12-11 07:00 1.78 328 3710 (1986) 119 (1956) 395 130 139 156 163 244 439 489 801 1070
2019-12-11 06:30 1.79 332 3710 (1986) 119 (1956) 395 130 139 156 163 244 439 489 801 1070
2019-12-11 06:00 1.79 332 3710 (1986) 119 (1956) 395 130 139 156 163 244 439 489 801 1070
2019-12-11 05:30 1.79 332 3710 (1986) 119 (1956) 395 130 139 156 163 244 439 489 801 1070
2019-12-11 05:00 1.79 332 3710 (1986) 119 (1956) 395 130 139 156 163 244 439 489 801 1070
2019-12-11 04:30 1.79 332 3710 (1986) 119 (1956) 395 130 139 156 163 244 439 489 801 1070
2019-12-11 04:00 1.79 332 3710 (1986) 119 (1956) 395 130 139 156 163 244 439 489 801 1070
2019-12-11 03:30 1.79 332 3710 (1986) 119 (1956) 395 130 139 156 163 244 439 489 801 1070
2019-12-11 03:00 1.79 332 3710 (1986) 119 (1956) 395 130 139 156 163 244 439 489 801 1070
2019-12-11 02:30 1.79 332 3710 (1986) 119 (1956) 395 130 139 156 163 244 439 489 801 1070
2019-12-11 02:00 1.80 337 3710 (1986) 119 (1956) 395 130 139 156 163 244 439 489 801 1070
2019-12-11 01:30 1.81 341 3710 (1986) 119 (1956) 395 130 139 156 163 244 439 489 801 1070
2019-12-11 01:00 1.79 332 3710 (1986) 119 (1956) 395 130 139 156 163 244 439 489 801 1070
2019-12-11 00:30 1.80 337 3710 (1986) 119 (1956) 395 130 139 156 163 244 439 489 801 1070
2019-12-11 00:00 1.79 332 3710 (1986) 119 (1956) 395 130 139 156 163 244 439 489 801 1070
2019-12-10 23:30 1.79 332 1780 (1986) 120 (1965) 349 126 136 158 165 245 388 505 718 1010
2019-12-10 23:00 1.81 341 1780 (1986) 120 (1965) 349 126 136 158 165 245 388 505 718 1010
2019-12-10 22:30 1.80 337 1780 (1986) 120 (1965) 349 126 136 158 165 245 388 505 718 1010
2019-12-10 22:00 1.81 341 1780 (1986) 120 (1965) 349 126 136 158 165 245 388 505 718 1010
2019-12-10 21:30 1.80 337 1780 (1986) 120 (1965) 349 126 136 158 165 245 388 505 718 1010
2019-12-10 21:00 1.79 332 1780 (1986) 120 (1965) 349 126 136 158 165 245 388 505 718 1010
2019-12-10 20:30 1.81 341 1780 (1986) 120 (1965) 349 126 136 158 165 245 388 505 718 1010
2019-12-10 20:00 1.80 337 1780 (1986) 120 (1965) 349 126 136 158 165 245 388 505 718 1010
2019-12-10 19:30 1.81 341 1780 (1986) 120 (1965) 349 126 136 158 165 245 388 505 718 1010
2019-12-10 19:00 1.81 341 1780 (1986) 120 (1965) 349 126 136 158 165 245 388 505 718 1010
2019-12-10 18:30 1.80 337 1780 (1986) 120 (1965) 349 126 136 158 165 245 388 505 718 1010
2019-12-10 18:00 1.80 337 1780 (1986) 120 (1965) 349 126 136 158 165 245 388 505 718 1010
2019-12-10 17:30 1.81 341 1780 (1986) 120 (1965) 349 126 136 158 165 245 388 505 718 1010
2019-12-10 17:00 1.81 341 1780 (1986) 120 (1965) 349 126 136 158 165 245 388 505 718 1010
2019-12-10 16:30 1.81 341 1780 (1986) 120 (1965) 349 126 136 158 165 245 388 505 718 1010
2019-12-10 16:00 1.80 337 1780 (1986) 120 (1965) 349 126 136 158 165 245 388 505 718 1010
2019-12-10 15:30 1.81 341 1780 (1986) 120 (1965) 349 126 136 158 165 245 388 505 718 1010
2019-12-10 15:00 1.81 341 1780 (1986) 120 (1965) 349 126 136 158 165 245 388 505 718 1010
2019-12-10 14:30 1.81 341 1780 (1986) 120 (1965) 349 126 136 158 165 245 388 505 718 1010
2019-12-10 14:00 1.82 345 1780 (1986) 120 (1965) 349 126 136 158 165 245 388 505 718 1010
2019-12-10 13:30 1.82 345 1780 (1986) 120 (1965) 349 126 136 158 165 245 388 505 718 1010
2019-12-10 13:00 1.82 345 1780 (1986) 120 (1965) 349 126 136 158 165 245 388 505 718 1010
2019-12-10 12:30 1.82 345 1780 (1986) 120 (1965) 349 126 136 158 165 245 388 505 718 1010
2019-12-10 12:00 1.81 341 1780 (1986) 120 (1965) 349 126 136 158 165 245 388 505 718 1010
2019-12-10 11:30 1.83 350 1780 (1986) 120 (1965) 349 126 136 158 165 245 388 505 718 1010
2019-12-10 11:00 1.84 354 1780 (1986) 120 (1965) 349 126 136 158 165 245 388 505 718 1010
2019-12-10 10:30 1.81 341 1780 (1986) 120 (1965) 349 126 136 158 165 245 388 505 718 1010
2019-12-10 10:00 1.82 345 1780 (1986) 120 (1965) 349 126 136 158 165 245 388 505 718 1010
2019-12-10 09:30 1.82 345 1780 (1986) 120 (1965) 349 126 136 158 165 245 388 505 718 1010
2019-12-10 09:00 1.82 345 1780 (1986) 120 (1965) 349 126 136 158 165 245 388 505 718 1010
2019-12-10 08:30 1.84 354 1780 (1986) 120 (1965) 349 126 136 158 165 245 388 505 718 1010
2019-12-10 08:00 1.82 345 1780 (1986) 120 (1965) 349 126 136 158 165 245 388 505 718 1010
2019-12-10 07:30 1.85 358 1780 (1986) 120 (1965) 349 126 136 158 165 245 388 505 718 1010
2019-12-10 07:00 1.83 350 1780 (1986) 120 (1965) 349 126 136 158 165 245 388 505 718 1010
2019-12-10 06:30 1.84 354 1780 (1986) 120 (1965) 349 126 136 158 165 245 388 505 718 1010
2019-12-10 06:00 1.84 354 1780 (1986) 120 (1965) 349 126 136 158 165 245 388 505 718 1010
2019-12-10 05:30 1.84 354 1780 (1986) 120 (1965) 349 126 136 158 165 245 388 505 718 1010
2019-12-10 05:00 1.85 358 1780 (1986) 120 (1965) 349 126 136 158 165 245 388 505 718 1010
2019-12-10 04:30 1.84 354 1780 (1986) 120 (1965) 349 126 136 158 165 245 388 505 718 1010
2019-12-10 04:00 1.83 350 1780 (1986) 120 (1965) 349 126 136 158 165 245 388 505 718 1010
2019-12-10 03:30 1.84 354 1780 (1986) 120 (1965) 349 126 136 158 165 245 388 505 718 1010
2019-12-10 03:00 1.85 358 1780 (1986) 120 (1965) 349 126 136 158 165 245 388 505 718 1010
2019-12-10 02:30 1.85 358 1780 (1986) 120 (1965) 349 126 136 158 165 245 388 505 718 1010
2019-12-10 02:00 1.86 362 1780 (1986) 120 (1965) 349 126 136 158 165 245 388 505 718 1010
2019-12-10 01:30 1.85 358 1780 (1986) 120 (1965) 349 126 136 158 165 245 388 505 718 1010
2019-12-10 01:00 1.85 358 1780 (1986) 120 (1965) 349 126 136 158 165 245 388 505 718 1010
2019-12-10 00:30 1.85 358 1780 (1986) 120 (1965) 349 126 136 158 165 245 388 505 718 1010
2019-12-10 00:00 1.86 362 1780 (1986) 120 (1965) 349 126 136 158 165 245 388 505 718 1010
2019-12-09 23:30 1.86 362 1500 (1988) 120 (1966) 351 127 136 155 166 234 417 466 767 1110
2019-12-09 23:00 1.86 362 1500 (1988) 120 (1966) 351 127 136 155 166 234 417 466 767 1110
2019-12-09 22:30 1.86 362 1500 (1988) 120 (1966) 351 127 136 155 166 234 417 466 767 1110
2019-12-09 22:00 1.87 367 1500 (1988) 120 (1966) 351 127 136 155 166 234 417 466 767 1110
2019-12-09 21:30 1.86 362 1500 (1988) 120 (1966) 351 127 136 155 166 234 417 466 767 1110
2019-12-09 21:00 1.87 367 1500 (1988) 120 (1966) 351 127 136 155 166 234 417 466 767 1110
2019-12-09 20:30 1.86 362 1500 (1988) 120 (1966) 351 127 136 155 166 234 417 466 767 1110
2019-12-09 20:00 1.86 362 1500 (1988) 120 (1966) 351 127 136 155 166 234 417 466 767 1110
2019-12-09 19:30 1.86 362 1500 (1988) 120 (1966) 351 127 136 155 166 234 417 466 767 1110
2019-12-09 19:00 1.88 371 1500 (1988) 120 (1966) 351 127 136 155 166 234 417 466 767 1110
2019-12-09 18:30 1.86 362 1500 (1988) 120 (1966) 351 127 136 155 166 234 417 466 767 1110
2019-12-09 18:00 1.87 367 1500 (1988) 120 (1966) 351 127 136 155 166 234 417 466 767 1110
2019-12-09 17:30 1.86 362 1500 (1988) 120 (1966) 351 127 136 155 166 234 417 466 767 1110
2019-12-09 17:00 1.88 371 1500 (1988) 120 (1966) 351 127 136 155 166 234 417 466 767 1110
2019-12-09 16:30 1.87 367 1500 (1988) 120 (1966) 351 127 136 155 166 234 417 466 767 1110
2019-12-09 16:00 1.88 371 1500 (1988) 120 (1966) 351 127 136 155 166 234 417 466 767 1110
2019-12-09 15:30 1.87 367 1500 (1988) 120 (1966) 351 127 136 155 166 234 417 466 767 1110
2019-12-09 15:00 1.87 367 1500 (1988) 120 (1966) 351 127 136 155 166 234 417 466 767 1110
2019-12-09 14:30 1.88 371 1500 (1988) 120 (1966) 351 127 136 155 166 234 417 466 767 1110
2019-12-09 14:00 1.89 376 1500 (1988) 120 (1966) 351 127 136 155 166 234 417 466 767 1110
2019-12-09 13:30 1.87 367 1500 (1988) 120 (1966) 351 127 136 155 166 234 417 466 767 1110
2019-12-09 13:00 1.88 371 1500 (1988) 120 (1966) 351 127 136 155 166 234 417 466 767 1110
2019-12-09 12:30 1.88 371 1500 (1988) 120 (1966) 351 127 136 155 166 234 417 466 767 1110
2019-12-09 12:00 1.87 367 1500 (1988) 120 (1966) 351 127 136 155 166 234 417 466 767 1110
2019-12-09 11:30 1.88 371 1500 (1988) 120 (1966) 351 127 136 155 166 234 417 466 767 1110
2019-12-09 11:00 1.88 371 1500 (1988) 120 (1966) 351 127 136 155 166 234 417 466 767 1110
2019-12-09 10:30 1.88 371 1500 (1988) 120 (1966) 351 127 136 155 166 234 417 466 767 1110
2019-12-09 10:00 1.87 367 1500 (1988) 120 (1966) 351 127 136 155 166 234 417 466 767 1110
2019-12-09 09:30 1.89 376 1500 (1988) 120 (1966) 351 127 136 155 166 234 417 466 767 1110
2019-12-09 09:00 1.88 371 1500 (1988) 120 (1966) 351 127 136 155 166 234 417 466 767 1110
2019-12-09 08:30 1.88 371 1500 (1988) 120 (1966) 351 127 136 155 166 234 417 466 767 1110
2019-12-09 08:00 1.88 371 1500 (1988) 120 (1966) 351 127 136 155 166 234 417 466 767 1110
2019-12-09 07:30 1.90 380 1500 (1988) 120 (1966) 351 127 136 155 166 234 417 466 767 1110
2019-12-09 07:00 1.88 371 1500 (1988) 120 (1966) 351 127 136 155 166 234 417 466 767 1110
2019-12-09 06:30 1.90 380 1500 (1988) 120 (1966) 351 127 136 155 166 234 417 466 767 1110
2019-12-09 06:00 1.89 376 1500 (1988) 120 (1966) 351 127 136 155 166 234 417 466 767 1110
2019-12-09 05:30 1.89 376 1500 (1988) 120 (1966) 351 127 136 155 166 234 417 466 767 1110
2019-12-09 05:00 1.90 380 1500 (1988) 120 (1966) 351 127 136 155 166 234 417 466 767 1110
2019-12-09 04:30 1.89 376 1500 (1988) 120 (1966) 351 127 136 155 166 234 417 466 767 1110
2019-12-09 04:00 1.89 376 1500 (1988) 120 (1966) 351 127 136 155 166 234 417 466 767 1110
2019-12-09 03:30 1.90 380 1500 (1988) 120 (1966) 351 127 136 155 166 234 417 466 767 1110
2019-12-09 03:00 1.89 376 1500 (1988) 120 (1966) 351 127 136 155 166 234 417 466 767 1110
2019-12-09 02:30 1.89 376 1500 (1988) 120 (1966) 351 127 136 155 166 234 417 466 767 1110
2019-12-09 02:00 1.90 380 1500 (1988) 120 (1966) 351 127 136 155 166 234 417 466 767 1110
2019-12-09 01:30 1.91 384 1500 (1988) 120 (1966) 351 127 136 155 166 234 417 466 767 1110
2019-12-09 01:00 1.90 380 1500 (1988) 120 (1966) 351 127 136 155 166 234 417 466 767 1110
2019-12-09 00:30 1.90 380 1500 (1988) 120 (1966) 351 127 136 155 166 234 417 466 767 1110
2019-12-09 00:00 1.91 384 1500 (1988) 120 (1966) 351 127 136 155 166 234 417 466 767 1110
2019-12-08 23:30 1.90 380 3500 (1988) 121 (1965) 392 128 136 157 166 236 436 523 864 1160
2019-12-08 23:00 1.90 380 3500 (1988) 121 (1965) 392 128 136 157 166 236 436 523 864 1160
2019-12-08 22:30 1.90 380 3500 (1988) 121 (1965) 392 128 136 157 166 236 436 523 864 1160
2019-12-08 22:00 1.91 384 3500 (1988) 121 (1965) 392 128 136 157 166 236 436 523 864 1160
2019-12-08 21:30 1.90 380 3500 (1988) 121 (1965) 392 128 136 157 166 236 436 523 864 1160
2019-12-08 21:00 1.90 380 3500 (1988) 121 (1965) 392 128 136 157 166 236 436 523 864 1160
2019-12-08 20:30 1.91 384 3500 (1988) 121 (1965) 392 128 136 157 166 236 436 523 864 1160
2019-12-08 20:00 1.91 384 3500 (1988) 121 (1965) 392 128 136 157 166 236 436 523 864 1160
2019-12-08 19:30 1.91 384 3500 (1988) 121 (1965) 392 128 136 157 166 236 436 523 864 1160
2019-12-08 19:00 1.91 384 3500 (1988) 121 (1965) 392 128 136 157 166 236 436 523 864 1160
2019-12-08 18:30 1.91 384 3500 (1988) 121 (1965) 392 128 136 157 166 236 436 523 864 1160
2019-12-08 18:00 1.92 389 3500 (1988) 121 (1965) 392 128 136 157 166 236 436 523 864 1160
2019-12-08 17:30 1.92 389 3500 (1988) 121 (1965) 392 128 136 157 166 236 436 523 864 1160
2019-12-08 17:00 1.92 389 3500 (1988) 121 (1965) 392 128 136 157 166 236 436 523 864 1160
2019-12-08 16:30 1.92 389 3500 (1988) 121 (1965) 392 128 136 157 166 236 436 523 864 1160
2019-12-08 16:00 1.92 389 3500 (1988) 121 (1965) 392 128 136 157 166 236 436 523 864 1160
2019-12-08 15:30 1.92 389 3500 (1988) 121 (1965) 392 128 136 157 166 236 436 523 864 1160
2019-12-08 15:00 1.92 389 3500 (1988) 121 (1965) 392 128 136 157 166 236 436 523 864 1160
2019-12-08 14:30 1.92 389 3500 (1988) 121 (1965) 392 128 136 157 166 236 436 523 864 1160
2019-12-08 14:00 1.93 393 3500 (1988) 121 (1965) 392 128 136 157 166 236 436 523 864 1160
2019-12-08 13:30 1.93 393 3500 (1988) 121 (1965) 392 128 136 157 166 236 436 523 864 1160
2019-12-08 13:00 1.94 398 3500 (1988) 121 (1965) 392 128 136 157 166 236 436 523 864 1160
2019-12-08 12:30 1.93 393 3500 (1988) 121 (1965) 392 128 136 157 166 236 436 523 864 1160
2019-12-08 12:00 1.93 393 3500 (1988) 121 (1965) 392 128 136 157 166 236 436 523 864 1160
2019-12-08 11:30 1.94 398 3500 (1988) 121 (1965) 392 128 136 157 166 236 436 523 864 1160
2019-12-08 11:00 1.92 389 3500 (1988) 121 (1965) 392 128 136 157 166 236 436 523 864 1160
2019-12-08 10:30 1.93 393 3500 (1988) 121 (1965) 392 128 136 157 166 236 436 523 864 1160
2019-12-08 10:00 1.93 393 3500 (1988) 121 (1965) 392 128 136 157 166 236 436 523 864 1160
2019-12-08 09:30 1.94 398 3500 (1988) 121 (1965) 392 128 136 157 166 236 436 523 864 1160
2019-12-08 09:00 1.94 398 3500 (1988) 121 (1965) 392 128 136 157 166 236 436 523 864 1160
2019-12-08 08:30 1.93 393 3500 (1988) 121 (1965) 392 128 136 157 166 236 436 523 864 1160
2019-12-08 08:00 1.94 398 3500 (1988) 121 (1965) 392 128 136 157 166 236 436 523 864 1160
2019-12-08 07:30 1.95 402 3500 (1988) 121 (1965) 392 128 136 157 166 236 436 523 864 1160
2019-12-08 07:00 1.95 402 3500 (1988) 121 (1965) 392 128 136 157 166 236 436 523 864 1160
2019-12-08 06:30 1.95 402 3500 (1988) 121 (1965) 392 128 136 157 166 236 436 523 864 1160
2019-12-08 06:00 1.96 407 3500 (1988) 121 (1965) 392 128 136 157 166 236 436 523 864 1160
2019-12-08 05:30 1.96 407 3500 (1988) 121 (1965) 392 128 136 157 166 236 436 523 864 1160
2019-12-08 05:00 1.95 402 3500 (1988) 121 (1965) 392 128 136 157 166 236 436 523 864 1160
2019-12-08 04:30 1.95 402 3500 (1988) 121 (1965) 392 128 136 157 166 236 436 523 864 1160
2019-12-08 04:00 1.96 407 3500 (1988) 121 (1965) 392 128 136 157 166 236 436 523 864 1160
2019-12-08 03:30 1.97 411 3500 (1988) 121 (1965) 392 128 136 157 166 236 436 523 864 1160
2019-12-08 03:00 1.96 407 3500 (1988) 121 (1965) 392 128 136 157 166 236 436 523 864 1160
2019-12-08 02:30 1.96 407 3500 (1988) 121 (1965) 392 128 136 157 166 236 436 523 864 1160
2019-12-08 02:00 1.97 411 3500 (1988) 121 (1965) 392 128 136 157 166 236 436 523 864 1160
2019-12-08 01:30 1.96 407 3500 (1988) 121 (1965) 392 128 136 157 166 236 436 523 864 1160
2019-12-08 01:00 1.97 411 3500 (1988) 121 (1965) 392 128 136 157 166 236 436 523 864 1160
2019-12-08 00:30 1.97 411 3500 (1988) 121 (1965) 392 128 136 157 166 236 436 523 864 1160
2019-12-08 00:00 1.96 407 3500 (1988) 121 (1965) 392 128 136 157 166 236 436 523 864 1160
2019-12-07 23:30 1.97 411 3190 (1983) 121 (1966) 404 129 140 157 165 248 439 558 883 1230
2019-12-07 23:00 1.98 416 3190 (1983) 121 (1966) 404 129 140 157 165 248 439 558 883 1230
2019-12-07 22:30 1.99 421 3190 (1983) 121 (1966) 404 129 140 157 165 248 439 558 883 1230
2019-12-07 22:00 1.97 411 3190 (1983) 121 (1966) 404 129 140 157 165 248 439 558 883 1230
2019-12-07 21:30 1.98 416 3190 (1983) 121 (1966) 404 129 140 157 165 248 439 558 883 1230
2019-12-07 21:00 1.97 411 3190 (1983) 121 (1966) 404 129 140 157 165 248 439 558 883 1230
2019-12-07 20:30 1.99 421 3190 (1983) 121 (1966) 404 129 140 157 165 248 439 558 883 1230
2019-12-07 20:00 1.98 416 3190 (1983) 121 (1966) 404 129 140 157 165 248 439 558 883 1230
2019-12-07 19:30 1.98 416 3190 (1983) 121 (1966) 404 129 140 157 165 248 439 558 883 1230
2019-12-07 19:00 1.98 416 3190 (1983) 121 (1966) 404 129 140 157 165 248 439 558 883 1230
2019-12-07 18:30 1.99 421 3190 (1983) 121 (1966) 404 129 140 157 165 248 439 558 883 1230
2019-12-07 18:00 1.98 416 3190 (1983) 121 (1966) 404 129 140 157 165 248 439 558 883 1230
2019-12-07 17:30 1.99 421 3190 (1983) 121 (1966) 404 129 140 157 165 248 439 558 883 1230
2019-12-07 17:00 1.98 416 3190 (1983) 121 (1966) 404 129 140 157 165 248 439 558 883 1230
2019-12-07 16:30 1.99 421 3190 (1983) 121 (1966) 404 129 140 157 165 248 439 558 883 1230
2019-12-07 16:00 1.98 416 3190 (1983) 121 (1966) 404 129 140 157 165 248 439 558 883 1230
2019-12-07 15:30 1.98 416 3190 (1983) 121 (1966) 404 129 140 157 165 248 439 558 883 1230
2019-12-07 15:00 2.00 425 3190 (1983) 121 (1966) 404 129 140 157 165 248 439 558 883 1230
2019-12-07 14:30 2.00 425 3190 (1983) 121 (1966) 404 129 140 157 165 248 439 558 883 1230
2019-12-07 14:00 2.00 425 3190 (1983) 121 (1966) 404 129 140 157 165 248 439 558 883 1230
2019-12-07 13:30 2.00 425 3190 (1983) 121 (1966) 404 129 140 157 165 248 439 558 883 1230
2019-12-07 13:00 2.00 425 3190 (1983) 121 (1966) 404 129 140 157 165 248 439 558 883 1230
2019-12-07 12:30 2.00 425 3190 (1983) 121 (1966) 404 129 140 157 165 248 439 558 883 1230
2019-12-07 12:00 2.01 430 3190 (1983) 121 (1966) 404 129 140 157 165 248 439 558 883 1230
2019-12-07 11:30 1.99 421 3190 (1983) 121 (1966) 404 129 140 157 165 248 439 558 883 1230
2019-12-07 11:00 1.99 421 3190 (1983) 121 (1966) 404 129 140 157 165 248 439 558 883 1230
2019-12-07 10:30 2.01 430 3190 (1983) 121 (1966) 404 129 140 157 165 248 439 558 883 1230
2019-12-07 10:00 2.00 425 3190 (1983) 121 (1966) 404 129 140 157 165 248 439 558 883 1230
2019-12-07 09:30 2.02 434 3190 (1983) 121 (1966) 404 129 140 157 165 248 439 558 883 1230
2019-12-07 09:00 2.02 434 3190 (1983) 121 (1966) 404 129 140 157 165 248 439 558 883 1230
2019-12-07 08:30 2.03 439 3190 (1983) 121 (1966) 404 129 140 157 165 248 439 558 883 1230
2019-12-07 08:00 2.02 434 3190 (1983) 121 (1966) 404 129 140 157 165 248 439 558 883 1230
2019-12-07 07:30 2.03 439 3190 (1983) 121 (1966) 404 129 140 157 165 248 439 558 883 1230
2019-12-07 07:00 2.03 439 3190 (1983) 121 (1966) 404 129 140 157 165 248 439 558 883 1230
2019-12-07 06:30 2.02 434 3190 (1983) 121 (1966) 404 129 140 157 165 248 439 558 883 1230
2019-12-07 06:00 2.03 439 3190 (1983) 121 (1966) 404 129 140 157 165 248 439 558 883 1230
2019-12-07 05:30 2.04 444 3190 (1983) 121 (1966) 404 129 140 157 165 248 439 558 883 1230
2019-12-07 05:00 2.05 448 3190 (1983) 121 (1966) 404 129 140 157 165 248 439 558 883 1230
2019-12-07 04:30 2.04 444 3190 (1983) 121 (1966) 404 129 140 157 165 248 439 558 883 1230
2019-12-07 04:00 2.04 444 3190 (1983) 121 (1966) 404 129 140 157 165 248 439 558 883 1230
2019-12-07 03:30 2.04 444 3190 (1983) 121 (1966) 404 129 140 157 165 248 439 558 883 1230
2019-12-07 03:00 2.04 444 3190 (1983) 121 (1966) 404 129 140 157 165 248 439 558 883 1230
2019-12-07 02:30 2.04 444 3190 (1983) 121 (1966) 404 129 140 157 165 248 439 558 883 1230
2019-12-07 02:00 2.04 444 3190 (1983) 121 (1966) 404 129 140 157 165 248 439 558 883 1230
2019-12-07 01:30 2.04 444 3190 (1983) 121 (1966) 404 129 140 157 165 248 439 558 883 1230
2019-12-07 01:00 2.05 448 3190 (1983) 121 (1966) 404 129 140 157 165 248 439 558 883 1230
2019-12-07 00:30 2.05 448 3190 (1983) 121 (1966) 404 129 140 157 165 248 439 558 883 1230
2019-12-07 00:00 2.07 458 3190 (1983) 121 (1966) 404 129 140 157 165 248 439 558 883 1230
2019-12-06 23:30 2.06 453 6520 (1983) 122 (1966) 474 128 136 155 163 254 439 559 772 1660
2019-12-06 23:00 2.05 448 6520 (1983) 122 (1966) 474 128 136 155 163 254 439 559 772 1660
2019-12-06 22:30 2.06 453 6520 (1983) 122 (1966) 474 128 136 155 163 254 439 559 772 1660
2019-12-06 22:00 2.06 453 6520 (1983) 122 (1966) 474 128 136 155 163 254 439 559 772 1660
2019-12-06 21:30 2.06 453 6520 (1983) 122 (1966) 474 128 136 155 163 254 439 559 772 1660
2019-12-06 21:00 2.07 458 6520 (1983) 122 (1966) 474 128 136 155 163 254 439 559 772 1660
2019-12-06 20:30 2.07 458 6520 (1983) 122 (1966) 474 128 136 155 163 254 439 559 772 1660
2019-12-06 20:00 2.08 463 6520 (1983) 122 (1966) 474 128 136 155 163 254 439 559 772 1660
2019-12-06 19:30 2.08 463 6520 (1983) 122 (1966) 474 128 136 155 163 254 439 559 772 1660
2019-12-06 19:00 2.08 463 6520 (1983) 122 (1966) 474 128 136 155 163 254 439 559 772 1660
2019-12-06 18:30 2.09 467 6520 (1983) 122 (1966) 474 128 136 155 163 254 439 559 772 1660
2019-12-06 18:00 2.08 463 6520 (1983) 122 (1966) 474 128 136 155 163 254 439 559 772 1660
2019-12-06 17:30 2.08 463 6520 (1983) 122 (1966) 474 128 136 155 163 254 439 559 772 1660
2019-12-06 17:00 2.09 467 6520 (1983) 122 (1966) 474 128 136 155 163 254 439 559 772 1660
2019-12-06 16:30 2.11 477 6520 (1983) 122 (1966) 474 128 136 155 163 254 439 559 772 1660
2019-12-06 16:00 2.09 467 6520 (1983) 122 (1966) 474 128 136 155 163 254 439 559 772 1660
2019-12-06 15:30 2.10 472 6520 (1983) 122 (1966) 474 128 136 155 163 254 439 559 772 1660
2019-12-06 15:00 2.10 472 6520 (1983) 122 (1966) 474 128 136 155 163 254 439 559 772 1660
2019-12-06 14:30 2.11 477 6520 (1983) 122 (1966) 474 128 136 155 163 254 439 559 772 1660
2019-12-06 14:00 2.10 472 6520 (1983) 122 (1966) 474 128 136 155 163 254 439 559 772 1660
2019-12-06 13:30 2.11 477 6520 (1983) 122 (1966) 474 128 136 155 163 254 439 559 772 1660
2019-12-06 13:00 2.11 477 6520 (1983) 122 (1966) 474 128 136 155 163 254 439 559 772 1660
2019-12-06 12:30 2.12 482 6520 (1983) 122 (1966) 474 128 136 155 163 254 439 559 772 1660
2019-12-06 12:00 2.13 486 6520 (1983) 122 (1966) 474 128 136 155 163 254 439 559 772 1660
2019-12-06 11:30 2.13 486 6520 (1983) 122 (1966) 474 128 136 155 163 254 439 559 772 1660
2019-12-06 11:00 2.12 482 6520 (1983) 122 (1966) 474 128 136 155 163 254 439 559 772 1660
2019-12-06 10:30 2.14 491 6520 (1983) 122 (1966) 474 128 136 155 163 254 439 559 772 1660
2019-12-06 10:00 2.14 491 6520 (1983) 122 (1966) 474 128 136 155 163 254 439 559 772 1660
2019-12-06 09:30 2.12 482 6520 (1983) 122 (1966) 474 128 136 155 163 254 439 559 772 1660
2019-12-06 09:00 2.13 486 6520 (1983) 122 (1966) 474 128 136 155 163 254 439 559 772 1660
2019-12-06 08:30 2.13 486 6520 (1983) 122 (1966) 474 128 136 155 163 254 439 559 772 1660
2019-12-06 08:00 2.13 486 6520 (1983) 122 (1966) 474 128 136 155 163 254 439 559 772 1660
2019-12-06 07:30 2.15 496 6520 (1983) 122 (1966) 474 128 136 155 163 254 439 559 772 1660
2019-12-06 07:00 2.16 501 6520 (1983) 122 (1966) 474 128 136 155 163 254 439 559 772 1660
2019-12-06 06:30 2.16 501 6520 (1983) 122 (1966) 474 128 136 155 163 254 439 559 772 1660
2019-12-06 06:00 2.15 496 6520 (1983) 122 (1966) 474 128 136 155 163 254 439 559 772 1660
2019-12-06 05:30 2.16 501 6520 (1983) 122 (1966) 474 128 136 155 163 254 439 559 772 1660
2019-12-06 05:00 2.17 506 6520 (1983) 122 (1966) 474 128 136 155 163 254 439 559 772 1660
2019-12-06 04:30 2.15 496 6520 (1983) 122 (1966) 474 128 136 155 163 254 439 559 772 1660
2019-12-06 04:00 2.18 511 6520 (1983) 122 (1966) 474 128 136 155 163 254 439 559 772 1660
2019-12-06 03:30 2.17 506 6520 (1983) 122 (1966) 474 128 136 155 163 254 439 559 772 1660
2019-12-06 03:00 2.16 501 6520 (1983) 122 (1966) 474 128 136 155 163 254 439 559 772 1660
2019-12-06 02:30 2.17 506 6520 (1983) 122 (1966) 474 128 136 155 163 254 439 559 772 1660
2019-12-06 02:00 2.17 506 6520 (1983) 122 (1966) 474 128 136 155 163 254 439 559 772 1660
2019-12-06 01:30 2.18 511 6520 (1983) 122 (1966) 474 128 136 155 163 254 439 559 772 1660
2019-12-06 01:00 2.17 506 6520 (1983) 122 (1966) 474 128 136 155 163 254 439 559 772 1660
2019-12-06 00:30 2.18 511 6520 (1983) 122 (1966) 474 128 136 155 163 254 439 559 772 1660
2019-12-06 00:00 2.19 516 6520 (1983) 122 (1966) 474 128 136 155 163 254 439 559 772 1660
2019-12-05 23:30 2.19 516 23000 (1983) 116 (1957) 688 125 135 153 160 233 421 626 879 2100
2019-12-05 23:00 2.19 516 23000 (1983) 116 (1957) 688 125 135 153 160 233 421 626 879 2100
2019-12-05 22:30 2.19 516 23000 (1983) 116 (1957) 688 125 135 153 160 233 421 626 879 2100
2019-12-05 22:00 2.20 521 23000 (1983) 116 (1957) 688 125 135 153 160 233 421 626 879 2100
2019-12-05 21:30 2.20 521 23000 (1983) 116 (1957) 688 125 135 153 160 233 421 626 879 2100
2019-12-05 21:00 2.19 516 23000 (1983) 116 (1957) 688 125 135 153 160 233 421 626 879 2100
2019-12-05 20:30 2.21 526 23000 (1983) 116 (1957) 688 125 135 153 160 233 421 626 879 2100
2019-12-05 20:00 2.20 521 23000 (1983) 116 (1957) 688 125 135 153 160 233 421 626 879 2100
2019-12-05 19:30 2.20 521 23000 (1983) 116 (1957) 688 125 135 153 160 233 421 626 879 2100
2019-12-05 19:00 2.21 526 23000 (1983) 116 (1957) 688 125 135 153 160 233 421 626 879 2100
2019-12-05 18:30 2.22 531 23000 (1983) 116 (1957) 688 125 135 153 160 233 421 626 879 2100
2019-12-05 18:00 2.22 531 23000 (1983) 116 (1957) 688 125 135 153 160 233 421 626 879 2100
2019-12-05 17:30 2.22 531 23000 (1983) 116 (1957) 688 125 135 153 160 233 421 626 879 2100
2019-12-05 17:00 2.22 531 23000 (1983) 116 (1957) 688 125 135 153 160 233 421 626 879 2100
2019-12-05 16:30 2.24 541 23000 (1983) 116 (1957) 688 125 135 153 160 233 421 626 879 2100
2019-12-05 16:00 2.23 536 23000 (1983) 116 (1957) 688 125 135 153 160 233 421 626 879 2100
2019-12-05 15:30 2.23 536 23000 (1983) 116 (1957) 688 125 135 153 160 233 421 626 879 2100
2019-12-05 15:00 2.24 541 23000 (1983) 116 (1957) 688 125 135 153 160 233 421 626 879 2100
2019-12-05 14:30 2.24 541 23000 (1983) 116 (1957) 688 125 135 153 160 233 421 626 879 2100
2019-12-05 14:00 2.25 546 23000 (1983) 116 (1957) 688 125 135 153 160 233 421 626 879 2100
2019-12-05 13:30 2.25 546 23000 (1983) 116 (1957) 688 125 135 153 160 233 421 626 879 2100
2019-12-05 13:00 2.24 541 23000 (1983) 116 (1957) 688 125 135 153 160 233 421 626 879 2100
2019-12-05 12:30 2.27 556 23000 (1983) 116 (1957) 688 125 135 153 160 233 421 626 879 2100
2019-12-05 12:00 2.27 556 23000 (1983) 116 (1957) 688 125 135 153 160 233 421 626 879 2100
2019-12-05 11:30 2.27 556 23000 (1983) 116 (1957) 688 125 135 153 160 233 421 626 879 2100
2019-12-05 10:30 2.27 556 23000 (1983) 116 (1957) 688 125 135 153 160 233 421 626 879 2100
2019-12-05 10:00 2.28 561 23000 (1983) 116 (1957) 688 125 135 153 160 233 421 626 879 2100
2019-12-05 09:30 2.29 566 23000 (1983) 116 (1957) 688 125 135 153 160 233 421 626 879 2100
2019-12-05 09:00 2.29 566 23000 (1983) 116 (1957) 688 125 135 153 160 233 421 626 879 2100
2019-12-05 08:30 2.31 576 23000 (1983) 116 (1957) 688 125 135 153 160 233 421 626 879 2100
2019-12-05 08:00 2.31 576 23000 (1983) 116 (1957) 688 125 135 153 160 233 421 626 879 2100
2019-12-05 07:30 2.32 581 23000 (1983) 116 (1957) 688 125 135 153 160 233 421 626 879 2100
2019-12-05 07:00 2.30 571 23000 (1983) 116 (1957) 688 125 135 153 160 233 421 626 879 2100
2019-12-05 06:30 2.33 586 23000 (1983) 116 (1957) 688 125 135 153 160 233 421 626 879 2100
2019-12-05 06:00 2.32 581 23000 (1983) 116 (1957) 688 125 135 153 160 233 421 626 879 2100
2019-12-05 05:30 2.34 591 23000 (1983) 116 (1957) 688 125 135 153 160 233 421 626 879 2100
2019-12-05 05:00 2.33 586 23000 (1983) 116 (1957) 688 125 135 153 160 233 421 626 879 2100
2019-12-05 04:30 2.33 586 23000 (1983) 116 (1957) 688 125 135 153 160 233 421 626 879 2100
2019-12-05 04:00 2.35 597 23000 (1983) 116 (1957) 688 125 135 153 160 233 421 626 879 2100
2019-12-05 03:30 2.34 591 23000 (1983) 116 (1957) 688 125 135 153 160 233 421 626 879 2100
2019-12-05 03:00 2.36 602 23000 (1983) 116 (1957) 688 125 135 153 160 233 421 626 879 2100
2019-12-05 02:30 2.36 602 23000 (1983) 116 (1957) 688 125 135 153 160 233 421 626 879 2100
2019-12-05 02:00 2.37 607 23000 (1983) 116 (1957) 688 125 135 153 160 233 421 626 879 2100
2019-12-05 01:30 2.38 612 23000 (1983) 116 (1957) 688 125 135 153 160 233 421 626 879 2100
2019-12-05 01:00 2.36 602 23000 (1983) 116 (1957) 688 125 135 153 160 233 421 626 879 2100
2019-12-05 00:30 2.38 612 23000 (1983) 116 (1957) 688 125 135 153 160 233 421 626 879 2100
2019-12-05 00:00 2.39 617 23000 (1983) 116 (1957) 688 125 135 153 160 233 421 626 879 2100
2019-12-04 23:30 2.40 623 44500 (1983) 116 (1957) 881 125 133 152 158 227 433 673 979 1590
2019-12-04 23:00 2.39 617 44500 (1983) 116 (1957) 881 125 133 152 158 227 433 673 979 1590
2019-12-04 22:30 2.39 617 44500 (1983) 116 (1957) 881 125 133 152 158 227 433 673 979 1590
2019-12-04 22:00 2.39 617 44500 (1983) 116 (1957) 881 125 133 152 158 227 433 673 979 1590
2019-12-04 21:30 2.40 623 44500 (1983) 116 (1957) 881 125 133 152 158 227 433 673 979 1590
2019-12-04 21:00 2.41 628 44500 (1983) 116 (1957) 881 125 133 152 158 227 433 673 979 1590
2019-12-04 20:30 2.41 628 44500 (1983) 116 (1957) 881 125 133 152 158 227 433 673 979 1590
2019-12-04 20:00 2.41 628 44500 (1983) 116 (1957) 881 125 133 152 158 227 433 673 979 1590
2019-12-04 19:30 2.41 628 44500 (1983) 116 (1957) 881 125 133 152 158 227 433 673 979 1590
2019-12-04 19:00 2.42 633 44500 (1983) 116 (1957) 881 125 133 152 158 227 433 673 979 1590
2019-12-04 18:30 2.41 628 44500 (1983) 116 (1957) 881 125 133 152 158 227 433 673 979 1590
2019-12-04 18:00 2.43 639 44500 (1983) 116 (1957) 881 125 133 152 158 227 433 673 979 1590
2019-12-04 17:30 2.44 644 44500 (1983) 116 (1957) 881 125 133 152 158 227 433 673 979 1590
2019-12-04 17:00 2.43 639 44500 (1983) 116 (1957) 881 125 133 152 158 227 433 673 979 1590
2019-12-04 16:30 2.45 649 44500 (1983) 116 (1957) 881 125 133 152 158 227 433 673 979 1590
2019-12-04 16:00 2.45 649 44500 (1983) 116 (1957) 881 125 133 152 158 227 433 673 979 1590
2019-12-04 15:30 2.46 654 44500 (1983) 116 (1957) 881 125 133 152 158 227 433 673 979 1590
2019-12-04 15:00 2.47 660 44500 (1983) 116 (1957) 881 125 133 152 158 227 433 673 979 1590
2019-12-04 14:30 2.45 649 44500 (1983) 116 (1957) 881 125 133 152 158 227 433 673 979 1590
2019-12-04 14:00 2.48 665 44500 (1983) 116 (1957) 881 125 133 152 158 227 433 673 979 1590
2019-12-04 13:30 2.48 665 44500 (1983) 116 (1957) 881 125 133 152 158 227 433 673 979 1590
2019-12-04 13:00 2.49 671 44500 (1983) 116 (1957) 881 125 133 152 158 227 433 673 979 1590
2019-12-04 12:30 2.50 676 44500 (1983) 116 (1957) 881 125 133 152 158 227 433 673 979 1590
2019-12-04 12:00 2.50 676 44500 (1983) 116 (1957) 881 125 133 152 158 227 433 673 979 1590
2019-12-04 11:30 2.50 676 44500 (1983) 116 (1957) 881 125 133 152 158 227 433 673 979 1590
2019-12-04 11:00 2.51 681 44500 (1983) 116 (1957) 881 125 133 152 158 227 433 673 979 1590
2019-12-04 10:30 2.52 687 44500 (1983) 116 (1957) 881 125 133 152 158 227 433 673 979 1590
2019-12-04 10:00 2.52 687 44500 (1983) 116 (1957) 881 125 133 152 158 227 433 673 979 1590
2019-12-04 09:30 2.54 698 44500 (1983) 116 (1957) 881 125 133 152 158 227 433 673 979 1590
2019-12-04 09:00 2.55 703 44500 (1983) 116 (1957) 881 125 133 152 158 227 433 673 979 1590
2019-12-04 08:30 2.55 703 44500 (1983) 116 (1957) 881 125 133 152 158 227 433 673 979 1590
2019-12-04 08:00 2.56 709 44500 (1983) 116 (1957) 881 125 133 152 158 227 433 673 979 1590
2019-12-04 07:30 2.56 709 44500 (1983) 116 (1957) 881 125 133 152 158 227 433 673 979 1590
2019-12-04 07:00 2.57 714 44500 (1983) 116 (1957) 881 125 133 152 158 227 433 673 979 1590
2019-12-04 06:30 2.57 714 44500 (1983) 116 (1957) 881 125 133 152 158 227 433 673 979 1590
2019-12-04 06:00 2.59 725 44500 (1983) 116 (1957) 881 125 133 152 158 227 433 673 979 1590
2019-12-04 05:30 2.58 720 44500 (1983) 116 (1957) 881 125 133 152 158 227 433 673 979 1590
2019-12-04 05:00 2.59 725 44500 (1983) 116 (1957) 881 125 133 152 158 227 433 673 979 1590
2019-12-04 04:30 2.60 731 44500 (1983) 116 (1957) 881 125 133 152 158 227 433 673 979 1590
2019-12-04 04:00 2.60 731 44500 (1983) 116 (1957) 881 125 133 152 158 227 433 673 979 1590
2019-12-04 03:30 2.60 731 44500 (1983) 116 (1957) 881 125 133 152 158 227 433 673 979 1590
2019-12-04 03:00 2.61 736 44500 (1983) 116 (1957) 881 125 133 152 158 227 433 673 979 1590
2019-12-04 02:30 2.62 741 44500 (1983) 116 (1957) 881 125 133 152 158 227 433 673 979 1590
2019-12-04 02:00 2.63 747 44500 (1983) 116 (1957) 881 125 133 152 158 227 433 673 979 1590
2019-12-04 01:30 2.64 752 44500 (1983) 116 (1957) 881 125 133 152 158 227 433 673 979 1590
2019-12-04 01:00 2.65 757 44500 (1983) 116 (1957) 881 125 133 152 158 227 433 673 979 1590
2019-12-04 00:30 2.65 757 44500 (1983) 116 (1957) 881 125 133 152 158 227 433 673 979 1590
2019-12-04 00:00 2.67 768 44500 (1983) 116 (1957) 881 125 133 152 158 227 433 673 979 1590

A total of 362 rows are displayed for years 1923 through 2018.

Trips for Meramec River (Missouri), Steelville (07013000)

DateStartEndDistanceConditionDischargeHeightFishingDetails

A total of 0 rows are displayed.

Condition Descriptions

Fishing Conditions

Fish Species

Notes

Classic Trip List

The classic River Trips application is still available for use. It is updated with the new system using a data retrofit. It is no longer maintained. The original River Trips application is no longer updated (as of 1 Dec 2016) but can be checked for errors or for the condition of the data before it was converted to the new system.